sensor_id;sensor_type;location;lat;lon;timestamp;P1;P2;P0
69688;PMS5003;56932;38.402;-96.176;2023-01-13T00:01:21;8;6;
69688;PMS5003;56932;38.402;-96.176;2023-01-13T00:03:46;8;7;
69688;PMS5003;56932;38.402;-96.176;2023-01-13T00:06:13;10;9;
69688;PMS5003;56932;38.402;-96.176;2023-01-13T00:08:38;8;8;
69688;PMS5003;56932;38.402;-96.176;2023-01-13T00:11:04;11;9;
69688;PMS5003;56932;38.402;-96.176;2023-01-13T00:13:29;8;8;
69688;PMS5003;56932;38.402;-96.176;2023-01-13T00:15:55;7;7;
69688;PMS5003;56932;38.402;-96.176;2023-01-13T00:18:20;11;8;
69688;PMS5003;56932;38.402;-96.176;2023-01-13T00:20:45;12;10;
69688;PMS5003;56932;38.402;-96.176;2023-01-13T00:23:11;7;7;
69688;PMS5003;56932;38.402;-96.176;2023-01-13T00:25:36;9;8;
69688;PMS5003;56932;38.402;-96.176;2023-01-13T00:28:02;13;8;
69688;PMS5003;56932;38.402;-96.176;2023-01-13T00:30:27;10;9;
69688;PMS5003;56932;38.402;-96.176;2023-01-13T00:32:52;10;10;
69688;PMS5003;56932;38.402;-96.176;2023-01-13T00:35:18;9;9;
69688;PMS5003;56932;38.402;-96.176;2023-01-13T00:37:43;16;10;
69688;PMS5003;56932;38.402;-96.176;2023-01-13T00:40:09;9;9;
69688;PMS5003;56932;38.402;-96.176;2023-01-13T00:42:34;8;8;
69688;PMS5003;56932;38.402;-96.176;2023-01-13T00:45:00;11;10;
69688;PMS5003;56932;38.402;-96.176;2023-01-13T00:47:25;14;11;
69688;PMS5003;56932;38.402;-96.176;2023-01-13T00:49:50;8;8;
69688;PMS5003;56932;38.402;-96.176;2023-01-13T00:52:16;11;10;
69688;PMS5003;56932;38.402;-96.176;2023-01-13T00:54:42;12;11;
69688;PMS5003;56932;38.402;-96.176;2023-01-13T00:57:07;13;11;
69688;PMS5003;56932;38.402;-96.176;2023-01-13T00:59:33;13;10;
69688;PMS5003;56932;38.402;-96.176;2023-01-13T01:01:58;10;9;
69688;PMS5003;56932;38.402;-96.176;2023-01-13T01:04:24;10;10;
69688;PMS5003;56932;38.402;-96.176;2023-01-13T01:06:49;15;10;
69688;PMS5003;56932;38.402;-96.176;2023-01-13T01:09:15;12;9;
69688;PMS5003;56932;38.402;-96.176;2023-01-13T01:11:41;14;10;
69688;PMS5003;56932;38.402;-96.176;2023-01-13T01:14:06;20;11;
69688;PMS5003;56932;38.402;-96.176;2023-01-13T01:16:32;13;9;
69688;PMS5003;56932;38.402;-96.176;2023-01-13T01:18:57;16;12;
69688;PMS5003;56932;38.402;-96.176;2023-01-13T01:21:23;16;11;
69688;PMS5003;56932;38.402;-96.176;2023-01-13T01:23:47;10;9;
69688;PMS5003;56932;38.402;-96.176;2023-01-13T01:26:14;12;10;
69688;PMS5003;56932;38.402;-96.176;2023-01-13T01:28:39;17;10;
69688;PMS5003;56932;38.402;-96.176;2023-01-13T01:31:05;16;9;
69688;PMS5003;56932;38.402;-96.176;2023-01-13T01:33:30;11;10;
69688;PMS5003;56932;38.402;-96.176;2023-01-13T01:35:55;14;10;
69688;PMS5003;56932;38.402;-96.176;2023-01-13T01:38:21;21;11;
69688;PMS5003;56932;38.402;-96.176;2023-01-13T01:40:45;15;12;
69688;PMS5003;56932;38.402;-96.176;2023-01-13T01:43:12;14;12;
69688;PMS5003;56932;38.402;-96.176;2023-01-13T01:45:37;15;10;
69688;PMS5003;56932;38.402;-96.176;2023-01-13T01:48:02;16;13;
69688;PMS5003;56932;38.402;-96.176;2023-01-13T01:50:28;14;14;
69688;PMS5003;56932;38.402;-96.176;2023-01-13T01:52:54;13;12;
69688;PMS5003;56932;38.402;-96.176;2023-01-13T01:55:20;16;11;
69688;PMS5003;56932;38.402;-96.176;2023-01-13T01:57:45;17;11;
69688;PMS5003;56932;38.402;-96.176;2023-01-13T02:00:11;17;13;
69688;PMS5003;56932;38.402;-96.176;2023-01-13T02:02:36;18;14;
69688;PMS5003;56932;38.402;-96.176;2023-01-13T02:05:01;11;9;
69688;PMS5003;56932;38.402;-96.176;2023-01-13T02:07:28;13;10;
69688;PMS5003;56932;38.402;-96.176;2023-01-13T02:09:53;13;9;
69688;PMS5003;56932;38.402;-96.176;2023-01-13T02:12:17;11;11;
69688;PMS5003;56932;38.402;-96.176;2023-01-13T02:14:43;14;14;
69688;PMS5003;56932;38.402;-96.176;2023-01-13T02:17:14;17;13;
69688;PMS5003;56932;38.402;-96.176;2023-01-13T02:19:49;14;10;
69688;PMS5003;56932;38.402;-96.176;2023-01-13T02:31:43;14;13;
69688;PMS5003;56932;38.402;-96.176;2023-01-13T02:34:08;10;10;
69688;PMS5003;56932;38.402;-96.176;2023-01-13T02:36:36;13;12;
69688;PMS5003;56932;38.402;-96.176;2023-01-13T02:39:01;18;11;
69688;PMS5003;56932;38.402;-96.176;2023-01-13T02:41:26;11;10;
69688;PMS5003;56932;38.402;-96.176;2023-01-13T02:43:50;13;12;
69688;PMS5003;56932;38.402;-96.176;2023-01-13T02:46:17;14;13;
69688;PMS5003;56932;38.402;-96.176;2023-01-13T02:48:42;13;11;
69688;PMS5003;56932;38.402;-96.176;2023-01-13T02:51:08;13;13;
69688;PMS5003;56932;38.402;-96.176;2023-01-13T02:53:33;12;11;
69688;PMS5003;56932;38.402;-96.176;2023-01-13T02:55:58;9;8;
69688;PMS5003;56932;38.402;-96.176;2023-01-13T02:58:23;14;13;
69688;PMS5003;56932;38.402;-96.176;2023-01-13T03:00:49;15;10;
69688;PMS5003;56932;38.402;-96.176;2023-01-13T03:03:15;11;10;
69688;PMS5003;56932;38.402;-96.176;2023-01-13T03:05:40;10;9;
69688;PMS5003;56932;38.402;-96.176;2023-01-13T03:08:10;12;11;
69688;PMS5003;56932;38.402;-96.176;2023-01-13T03:10:35;11;11;
69688;PMS5003;56932;38.402;-96.176;2023-01-13T03:12:59;9;9;
69688;PMS5003;56932;38.402;-96.176;2023-01-13T03:15:23;13;10;
69688;PMS5003;56932;38.402;-96.176;2023-01-13T03:17:50;11;9;
69688;PMS5003;56932;38.402;-96.176;2023-01-13T03:20:14;11;11;
69688;PMS5003;56932;38.402;-96.176;2023-01-13T03:22:39;9;9;
69688;PMS5003;56932;38.402;-96.176;2023-01-13T03:25:06;11;11;
69688;PMS5003;56932;38.402;-96.176;2023-01-13T03:27:31;11;10;
69688;PMS5003;56932;38.402;-96.176;2023-01-13T03:29:56;11;11;
69688;PMS5003;56932;38.402;-96.176;2023-01-13T03:32:21;10;10;
69688;PMS5003;56932;38.402;-96.176;2023-01-13T03:34:47;7;7;
69688;PMS5003;56932;38.402;-96.176;2023-01-13T03:37:12;12;12;
69688;PMS5003;56932;38.402;-96.176;2023-01-13T03:39:38;10;10;
69688;PMS5003;56932;38.402;-96.176;2023-01-13T03:42:03;13;9;
69688;PMS5003;56932;38.402;-96.176;2023-01-13T03:44:29;10;10;
69688;PMS5003;56932;38.402;-96.176;2023-01-13T03:46:57;12;11;
69688;PMS5003;56932;38.402;-96.176;2023-01-13T03:49:21;12;10;
69688;PMS5003;56932;38.402;-96.176;2023-01-13T03:51:46;8;8;
69688;PMS5003;56932;38.402;-96.176;2023-01-13T03:54:10;9;8;
69688;PMS5003;56932;38.402;-96.176;2023-01-13T03:56:37;11;10;
69688;PMS5003;56932;38.402;-96.176;2023-01-13T03:59:02;20;12;
69688;PMS5003;56932;38.402;-96.176;2023-01-13T04:01:29;11;10;
69688;PMS5003;56932;38.402;-96.176;2023-01-13T04:03:53;10;8;
69688;PMS5003;56932;38.402;-96.176;2023-01-13T04:06:20;11;8;
69688;PMS5003;56932;38.402;-96.176;2023-01-13T04:08:45;10;10;
69688;PMS5003;56932;38.402;-96.176;2023-01-13T04:11:08;9;9;
69688;PMS5003;56932;38.402;-96.176;2023-01-13T04:13:36;9;9;
69688;PMS5003;56932;38.402;-96.176;2023-01-13T04:15:59;10;9;
69688;PMS5003;56932;38.402;-96.176;2023-01-13T04:18:26;12;9;
69688;PMS5003;56932;38.402;-96.176;2023-01-13T04:20:51;10;9;
69688;PMS5003;56932;38.402;-96.176;2023-01-13T04:23:17;7;7;
69688;PMS5003;56932;38.402;-96.176;2023-01-13T04:25:42;10;8;
69688;PMS5003;56932;38.402;-96.176;2023-01-13T04:28:08;11;9;
69688;PMS5003;56932;38.402;-96.176;2023-01-13T04:30:33;11;11;
69688;PMS5003;56932;38.402;-96.176;2023-01-13T04:32:58;8;8;
69688;PMS5003;56932;38.402;-96.176;2023-01-13T04:35:24;12;10;
69688;PMS5003;56932;38.402;-96.176;2023-01-13T04:37:50;9;9;
69688;PMS5003;56932;38.402;-96.176;2023-01-13T04:40:16;10;8;
69688;PMS5003;56932;38.402;-96.176;2023-01-13T04:42:42;11;10;
69688;PMS5003;56932;38.402;-96.176;2023-01-13T04:45:07;16;13;
69688;PMS5003;56932;38.402;-96.176;2023-01-13T04:47:31;11;10;
69688;PMS5003;56932;38.402;-96.176;2023-01-13T04:49:57;7;7;
69688;PMS5003;56932;38.402;-96.176;2023-01-13T04:52:22;11;10;
69688;PMS5003;56932;38.402;-96.176;2023-01-13T04:54:48;11;11;
69688;PMS5003;56932;38.402;-96.176;2023-01-13T04:57:13;8;8;
69688;PMS5003;56932;38.402;-96.176;2023-01-13T04:59:39;11;11;
69688;PMS5003;56932;38.402;-96.176;2023-01-13T05:02:04;7;7;
69688;PMS5003;56932;38.402;-96.176;2023-01-13T05:04:30;11;7;
69688;PMS5003;56932;38.402;-96.176;2023-01-13T05:06:55;7;7;
69688;PMS5003;56932;38.402;-96.176;2023-01-13T05:09:21;16;10;
69688;PMS5003;56932;38.402;-96.176;2023-01-13T05:11:46;9;9;
69688;PMS5003;56932;38.402;-96.176;2023-01-13T05:14:11;12;12;
69688;PMS5003;56932;38.402;-96.176;2023-01-13T05:16:37;12;10;
69688;PMS5003;56932;38.402;-96.176;2023-01-13T05:19:03;10;8;
69688;PMS5003;56932;38.402;-96.176;2023-01-13T05:21:28;15;10;
69688;PMS5003;56932;38.402;-96.176;2023-01-13T05:23:54;9;9;
69688;PMS5003;56932;38.402;-96.176;2023-01-13T05:26:21;11;10;
69688;PMS5003;56932;38.402;-96.176;2023-01-13T05:28:45;11;11;
69688;PMS5003;56932;38.402;-96.176;2023-01-13T05:31:11;14;9;
69688;PMS5003;56932;38.402;-96.176;2023-01-13T05:33:36;10;9;
69688;PMS5003;56932;38.402;-96.176;2023-01-13T05:36:02;13;10;
69688;PMS5003;56932;38.402;-96.176;2023-01-13T05:38:28;13;11;
69688;PMS5003;56932;38.402;-96.176;2023-01-13T05:40:53;10;10;
69688;PMS5003;56932;38.402;-96.176;2023-01-13T05:43:19;10;10;
69688;PMS5003;56932;38.402;-96.176;2023-01-13T05:45:44;11;11;
69688;PMS5003;56932;38.402;-96.176;2023-01-13T05:48:09;12;12;
69688;PMS5003;56932;38.402;-96.176;2023-01-13T05:50:35;12;12;
69688;PMS5003;56932;38.402;-96.176;2023-01-13T05:53:01;12;10;
69688;PMS5003;56932;38.402;-96.176;2023-01-13T05:55:26;10;10;
69688;PMS5003;56932;38.402;-96.176;2023-01-13T05:57:52;16;10;
69688;PMS5003;56932;38.402;-96.176;2023-01-13T06:00:17;9;9;
69688;PMS5003;56932;38.402;-96.176;2023-01-13T06:02:42;10;10;
69688;PMS5003;56932;38.402;-96.176;2023-01-13T06:05:08;12;11;
69688;PMS5003;56932;38.402;-96.176;2023-01-13T06:07:33;8;8;
69688;PMS5003;56932;38.402;-96.176;2023-01-13T06:09:59;14;11;
69688;PMS5003;56932;38.402;-96.176;2023-01-13T06:12:25;13;11;
69688;PMS5003;56932;38.402;-96.176;2023-01-13T06:14:51;10;10;
69688;PMS5003;56932;38.402;-96.176;2023-01-13T06:17:17;14;12;
69688;PMS5003;56932;38.402;-96.176;2023-01-13T06:19:42;13;12;
69688;PMS5003;56932;38.402;-96.176;2023-01-13T06:22:09;9;9;
69688;PMS5003;56932;38.402;-96.176;2023-01-13T06:24:33;14;10;
69688;PMS5003;56932;38.402;-96.176;2023-01-13T06:26:58;10;8;
69688;PMS5003;56932;38.402;-96.176;2023-01-13T06:29:24;12;12;
69688;PMS5003;56932;38.402;-96.176;2023-01-13T06:31:49;10;9;
69688;PMS5003;56932;38.402;-96.176;2023-01-13T06:34:15;12;11;
69688;PMS5003;56932;38.402;-96.176;2023-01-13T06:36:42;10;10;
69688;PMS5003;56932;38.402;-96.176;2023-01-13T06:39:06;9;9;
69688;PMS5003;56932;38.402;-96.176;2023-01-13T06:41:31;11;10;
69688;PMS5003;56932;38.402;-96.176;2023-01-13T06:43:57;11;11;
69688;PMS5003;56932;38.402;-96.176;2023-01-13T06:46:22;11;10;
69688;PMS5003;56932;38.402;-96.176;2023-01-13T06:48:48;9;8;
69688;PMS5003;56932;38.402;-96.176;2023-01-13T06:51:13;10;10;
69688;PMS5003;56932;38.402;-96.176;2023-01-13T06:53:39;8;8;
69688;PMS5003;56932;38.402;-96.176;2023-01-13T06:56:05;9;9;
69688;PMS5003;56932;38.402;-96.176;2023-01-13T06:58:30;10;10;
69688;PMS5003;56932;38.402;-96.176;2023-01-13T07:00:58;9;9;
69688;PMS5003;56932;38.402;-96.176;2023-01-13T07:03:21;10;9;
69688;PMS5003;56932;38.402;-96.176;2023-01-13T07:05:50;12;12;
69688;PMS5003;56932;38.402;-96.176;2023-01-13T07:08:12;13;12;
69688;PMS5003;56932;38.402;-96.176;2023-01-13T07:10:37;9;9;
69688;PMS5003;56932;38.402;-96.176;2023-01-13T07:13:03;12;11;
69688;PMS5003;56932;38.402;-96.176;2023-01-13T07:15:29;8;8;
69688;PMS5003;56932;38.402;-96.176;2023-01-13T07:17:54;13;12;
69688;PMS5003;56932;38.402;-96.176;2023-01-13T07:20:20;10;8;
69688;PMS5003;56932;38.402;-96.176;2023-01-13T07:22:45;11;9;
69688;PMS5003;56932;38.402;-96.176;2023-01-13T07:25:10;10;10;
69688;PMS5003;56932;38.402;-96.176;2023-01-13T07:27:36;12;10;
69688;PMS5003;56932;38.402;-96.176;2023-01-13T07:30:02;12;10;
69688;PMS5003;56932;38.402;-96.176;2023-01-13T07:32:27;9;9;
69688;PMS5003;56932;38.402;-96.176;2023-01-13T07:34:52;9;9;
69688;PMS5003;56932;38.402;-96.176;2023-01-13T07:37:18;9;9;
69688;PMS5003;56932;38.402;-96.176;2023-01-13T07:39:43;8;8;
69688;PMS5003;56932;38.402;-96.176;2023-01-13T07:42:09;9;9;
69688;PMS5003;56932;38.402;-96.176;2023-01-13T07:44:34;12;12;
69688;PMS5003;56932;38.402;-96.176;2023-01-13T07:47:00;14;10;
69688;PMS5003;56932;38.402;-96.176;2023-01-13T07:49:25;10;10;
69688;PMS5003;56932;38.402;-96.176;2023-01-13T07:51:51;14;13;
69688;PMS5003;56932;38.402;-96.176;2023-01-13T07:54:16;15;7;
69688;PMS5003;56932;38.402;-96.176;2023-01-13T07:56:42;15;13;
69688;PMS5003;56932;38.402;-96.176;2023-01-13T07:59:08;14;10;
69688;PMS5003;56932;38.402;-96.176;2023-01-13T08:01:33;12;12;
69688;PMS5003;56932;38.402;-96.176;2023-01-13T08:03:59;16;13;
69688;PMS5003;56932;38.402;-96.176;2023-01-13T08:06:24;14;11;
69688;PMS5003;56932;38.402;-96.176;2023-01-13T08:08:49;10;9;
69688;PMS5003;56932;38.402;-96.176;2023-01-13T08:11:15;15;12;
69688;PMS5003;56932;38.402;-96.176;2023-01-13T08:13:41;11;11;
69688;PMS5003;56932;38.402;-96.176;2023-01-13T08:16:07;11;11;
69688;PMS5003;56932;38.402;-96.176;2023-01-13T08:18:32;12;9;
69688;PMS5003;56932;38.402;-96.176;2023-01-13T08:21:00;22;13;
69688;PMS5003;56932;38.402;-96.176;2023-01-13T08:23:22;12;12;
69688;PMS5003;56932;38.402;-96.176;2023-01-13T08:25:48;13;12;
69688;PMS5003;56932;38.402;-96.176;2023-01-13T08:28:14;12;11;
69688;PMS5003;56932;38.402;-96.176;2023-01-13T08:30:39;13;12;
69688;PMS5003;56932;38.402;-96.176;2023-01-13T08:33:05;17;12;
69688;PMS5003;56932;38.402;-96.176;2023-01-13T08:35:30;14;14;
69688;PMS5003;56932;38.402;-96.176;2023-01-13T08:37:55;13;13;
69688;PMS5003;56932;38.402;-96.176;2023-01-13T08:40:20;17;13;
69688;PMS5003;56932;38.402;-96.176;2023-01-13T08:42:46;12;12;
69688;PMS5003;56932;38.402;-96.176;2023-01-13T08:45:11;17;13;
69688;PMS5003;56932;38.402;-96.176;2023-01-13T08:47:37;15;11;
69688;PMS5003;56932;38.402;-96.176;2023-01-13T08:50:03;16;13;
69688;PMS5003;56932;38.402;-96.176;2023-01-13T08:52:28;16;13;
69688;PMS5003;56932;38.402;-96.176;2023-01-13T08:54:54;23;13;
69688;PMS5003;56932;38.402;-96.176;2023-01-13T08:57:19;15;14;
69688;PMS5003;56932;38.402;-96.176;2023-01-13T08:59:45;13;12;
69688;PMS5003;56932;38.402;-96.176;2023-01-13T09:02:11;13;13;
69688;PMS5003;56932;38.402;-96.176;2023-01-13T09:04:35;20;13;
69688;PMS5003;56932;38.402;-96.176;2023-01-13T09:07:01;12;11;
69688;PMS5003;56932;38.402;-96.176;2023-01-13T09:09:27;15;13;
69688;PMS5003;56932;38.402;-96.176;2023-01-13T09:11:53;14;12;
69688;PMS5003;56932;38.402;-96.176;2023-01-13T09:14:18;17;15;
69688;PMS5003;56932;38.402;-96.176;2023-01-13T09:16:44;16;14;
69688;PMS5003;56932;38.402;-96.176;2023-01-13T09:19:09;16;14;
69688;PMS5003;56932;38.402;-96.176;2023-01-13T09:21:35;13;13;
69688;PMS5003;56932;38.402;-96.176;2023-01-13T09:24:00;13;13;
69688;PMS5003;56932;38.402;-96.176;2023-01-13T09:26:26;15;13;
69688;PMS5003;56932;38.402;-96.176;2023-01-13T09:28:51;13;13;
69688;PMS5003;56932;38.402;-96.176;2023-01-13T09:31:17;15;14;
69688;PMS5003;56932;38.402;-96.176;2023-01-13T09:33:42;18;12;
69688;PMS5003;56932;38.402;-96.176;2023-01-13T09:36:08;17;14;
69688;PMS5003;56932;38.402;-96.176;2023-01-13T09:38:34;14;12;
69688;PMS5003;56932;38.402;-96.176;2023-01-13T09:40:59;14;13;
69688;PMS5003;56932;38.402;-96.176;2023-01-13T09:43:27;16;14;
69688;PMS5003;56932;38.402;-96.176;2023-01-13T09:45:52;13;11;
69688;PMS5003;56932;38.402;-96.176;2023-01-13T09:48:17;16;13;
69688;PMS5003;56932;38.402;-96.176;2023-01-13T09:53:09;13;12;
69688;PMS5003;56932;38.402;-96.176;2023-01-13T09:55:33;12;12;
69688;PMS5003;56932;38.402;-96.176;2023-01-13T09:58:00;15;11;
69688;PMS5003;56932;38.402;-96.176;2023-01-13T10:00:26;14;12;
69688;PMS5003;56932;38.402;-96.176;2023-01-13T10:05:16;16;13;
69688;PMS5003;56932;38.402;-96.176;2023-01-13T10:07:42;23;14;
69688;PMS5003;56932;38.402;-96.176;2023-01-13T10:10:08;15;13;
69688;PMS5003;56932;38.402;-96.176;2023-01-13T10:12:32;14;14;
69688;PMS5003;56932;38.402;-96.176;2023-01-13T10:14:58;15;15;
69688;PMS5003;56932;38.402;-96.176;2023-01-13T10:17:24;15;12;
69688;PMS5003;56932;38.402;-96.176;2023-01-13T10:19:50;16;14;
69688;PMS5003;56932;38.402;-96.176;2023-01-13T10:22:17;12;12;
69688;PMS5003;56932;38.402;-96.176;2023-01-13T10:27:06;19;10;
69688;PMS5003;56932;38.402;-96.176;2023-01-13T10:29:31;17;14;
69688;PMS5003;56932;38.402;-96.176;2023-01-13T10:31:56;16;11;
69688;PMS5003;56932;38.402;-96.176;2023-01-13T10:34:23;13;12;
69688;PMS5003;56932;38.402;-96.176;2023-01-13T10:39:13;13;12;
69688;PMS5003;56932;38.402;-96.176;2023-01-13T10:41:38;19;14;
69688;PMS5003;56932;38.402;-96.176;2023-01-13T10:44:05;14;10;
69688;PMS5003;56932;38.402;-96.176;2023-01-13T10:46:31;19;12;
69688;PMS5003;56932;38.402;-96.176;2023-01-13T10:48:56;14;10;
69688;PMS5003;56932;38.402;-96.176;2023-01-13T10:51:22;12;12;
69688;PMS5003;56932;38.402;-96.176;2023-01-13T10:53:49;14;12;
69688;PMS5003;56932;38.402;-96.176;2023-01-13T10:56:14;11;9;
69688;PMS5003;56932;38.402;-96.176;2023-01-13T10:58:37;12;11;
69688;PMS5003;56932;38.402;-96.176;2023-01-13T11:01:04;12;10;
69688;PMS5003;56932;38.402;-96.176;2023-01-13T11:05:55;12;10;
69688;PMS5003;56932;38.402;-96.176;2023-01-13T11:08:20;12;11;
69688;PMS5003;56932;38.402;-96.176;2023-01-13T11:10:46;11;11;
69688;PMS5003;56932;38.402;-96.176;2023-01-13T11:13:12;16;11;
69688;PMS5003;56932;38.402;-96.176;2023-01-13T11:15:38;10;10;
69688;PMS5003;56932;38.402;-96.176;2023-01-13T11:18:02;11;9;
69688;PMS5003;56932;38.402;-96.176;2023-01-13T11:20:28;13;12;
69688;PMS5003;56932;38.402;-96.176;2023-01-13T11:22:53;10;10;
69688;PMS5003;56932;38.402;-96.176;2023-01-13T11:25:20;9;9;
69688;PMS5003;56932;38.402;-96.176;2023-01-13T11:27:45;10;9;
69688;PMS5003;56932;38.402;-96.176;2023-01-13T11:30:14;13;12;
69688;PMS5003;56932;38.402;-96.176;2023-01-13T11:32:36;11;10;
69688;PMS5003;56932;38.402;-96.176;2023-01-13T11:35:02;11;10;
69688;PMS5003;56932;38.402;-96.176;2023-01-13T11:37:27;10;9;
69688;PMS5003;56932;38.402;-96.176;2023-01-13T11:39:53;11;11;
69688;PMS5003;56932;38.402;-96.176;2023-01-13T11:42:19;7;7;
69688;PMS5003;56932;38.402;-96.176;2023-01-13T11:44:44;11;8;
69688;PMS5003;56932;38.402;-96.176;2023-01-13T11:47:09;16;11;
69688;PMS5003;56932;38.402;-96.176;2023-01-13T11:49:34;10;10;
69688;PMS5003;56932;38.402;-96.176;2023-01-13T11:52:00;21;11;
69688;PMS5003;56932;38.402;-96.176;2023-01-13T11:54:31;13;11;
69688;PMS5003;56932;38.402;-96.176;2023-01-13T11:59:21;13;11;
69688;PMS5003;56932;38.402;-96.176;2023-01-13T12:01:44;11;9;
69688;PMS5003;56932;38.402;-96.176;2023-01-13T12:04:22;9;8;
69688;PMS5003;56932;38.402;-96.176;2023-01-13T12:06:33;11;10;
69688;PMS5003;56932;38.402;-96.176;2023-01-13T12:09:01;12;12;
69688;PMS5003;56932;38.402;-96.176;2023-01-13T12:11:24;10;7;
69688;PMS5003;56932;38.402;-96.176;2023-01-13T12:13:58;9;9;
69688;PMS5003;56932;38.402;-96.176;2023-01-13T12:16:15;14;10;
69688;PMS5003;56932;38.402;-96.176;2023-01-13T12:21:08;10;10;
69688;PMS5003;56932;38.402;-96.176;2023-01-13T12:23:33;10;9;
69688;PMS5003;56932;38.402;-96.176;2023-01-13T12:25:57;10;10;
69688;PMS5003;56932;38.402;-96.176;2023-01-13T12:28:22;16;11;
69688;PMS5003;56932;38.402;-96.176;2023-01-13T12:30:47;10;9;
69688;PMS5003;56932;38.402;-96.176;2023-01-13T12:33:14;17;11;
69688;PMS5003;56932;38.402;-96.176;2023-01-13T12:35:38;12;11;
69688;PMS5003;56932;38.402;-96.176;2023-01-13T12:38:05;14;12;
69688;PMS5003;56932;38.402;-96.176;2023-01-13T12:40:34;14;11;
69688;PMS5003;56932;38.402;-96.176;2023-01-13T12:42:57;13;11;
69688;PMS5003;56932;38.402;-96.176;2023-01-13T12:45:23;14;13;
69688;PMS5003;56932;38.402;-96.176;2023-01-13T12:47:45;15;13;
69688;PMS5003;56932;38.402;-96.176;2023-01-13T12:55:07;15;15;
69688;PMS5003;56932;38.402;-96.176;2023-01-13T12:57:27;15;14;
69688;PMS5003;56932;38.402;-96.176;2023-01-13T13:04:45;15;12;
69688;PMS5003;56932;38.402;-96.176;2023-01-13T13:07:11;19;14;
69688;PMS5003;56932;38.402;-96.176;2023-01-13T13:09:36;14;14;
69688;PMS5003;56932;38.402;-96.176;2023-01-13T13:12:03;19;16;
69688;PMS5003;56932;38.402;-96.176;2023-01-13T13:16:52;24;17;
69688;PMS5003;56932;38.402;-96.176;2023-01-13T13:24:09;17;15;
69688;PMS5003;56932;38.402;-96.176;2023-01-13T13:26:36;23;18;
69688;PMS5003;56932;38.402;-96.176;2023-01-13T13:31:29;18;17;
69688;PMS5003;56932;38.402;-96.176;2023-01-13T13:33:57;15;15;
69688;PMS5003;56932;38.402;-96.176;2023-01-13T13:36:23;22;18;
69688;PMS5003;56932;38.402;-96.176;2023-01-13T13:38:49;17;17;
69688;PMS5003;56932;38.402;-96.176;2023-01-13T13:41:10;19;18;
69688;PMS5003;56932;38.402;-96.176;2023-01-13T13:43:38;23;21;
69688;PMS5003;56932;38.402;-96.176;2023-01-13T13:45:59;19;18;
69688;PMS5003;56932;38.402;-96.176;2023-01-13T13:48:25;19;17;
69688;PMS5003;56932;38.402;-96.176;2023-01-13T13:50:51;18;16;
69688;PMS5003;56932;38.402;-96.176;2023-01-13T13:53:16;28;18;
69688;PMS5003;56932;38.402;-96.176;2023-01-13T13:55:44;22;21;
69688;PMS5003;56932;38.402;-96.176;2023-01-13T13:58:11;20;18;
69688;PMS5003;56932;38.402;-96.176;2023-01-13T14:00:33;18;18;
69688;PMS5003;56932;38.402;-96.176;2023-01-13T14:02:58;19;16;
69688;PMS5003;56932;38.402;-96.176;2023-01-13T14:05:24;18;17;
69688;PMS5003;56932;38.402;-96.176;2023-01-13T14:07:49;30;22;
69688;PMS5003;56932;38.402;-96.176;2023-01-13T14:10:16;20;19;
69688;PMS5003;56932;38.402;-96.176;2023-01-13T14:12:39;28;19;
69688;PMS5003;56932;38.402;-96.176;2023-01-13T14:15:05;21;19;
69688;PMS5003;56932;38.402;-96.176;2023-01-13T14:17:30;23;22;
69688;PMS5003;56932;38.402;-96.176;2023-01-13T14:19:56;29;23;
69688;PMS5003;56932;38.402;-96.176;2023-01-13T14:22:20;25;19;
69688;PMS5003;56932;38.402;-96.176;2023-01-13T14:24:47;17;17;
69688;PMS5003;56932;38.402;-96.176;2023-01-13T14:27:13;22;17;
69688;PMS5003;56932;38.402;-96.176;2023-01-13T14:29:36;18;17;
69688;PMS5003;56932;38.402;-96.176;2023-01-13T14:32:02;27;19;
69688;PMS5003;56932;38.402;-96.176;2023-01-13T14:34:27;22;19;
69688;PMS5003;56932;38.402;-96.176;2023-01-13T14:36:52;18;18;
69688;PMS5003;56932;38.402;-96.176;2023-01-13T14:41:44;19;15;
69688;PMS5003;56932;38.402;-96.176;2023-01-13T14:44:11;23;16;
69688;PMS5003;56932;38.402;-96.176;2023-01-13T14:46:36;27;21;
69688;PMS5003;56932;38.402;-96.176;2023-01-13T14:49:00;17;17;
69688;PMS5003;56932;38.402;-96.176;2023-01-13T14:51:26;19;16;
69688;PMS5003;56932;38.402;-96.176;2023-01-13T14:53:53;24;18;
69688;PMS5003;56932;38.402;-96.176;2023-01-13T14:58:41;16;13;
69688;PMS5003;56932;38.402;-96.176;2023-01-13T15:05:58;14;14;
69688;PMS5003;56932;38.402;-96.176;2023-01-13T15:10:50;14;13;
69688;PMS5003;56932;38.402;-96.176;2023-01-13T15:13:22;15;11;
69688;PMS5003;56932;38.402;-96.176;2023-01-13T15:15:41;14;12;
69688;PMS5003;56932;38.402;-96.176;2023-01-13T15:18:09;13;12;
69688;PMS5003;56932;38.402;-96.176;2023-01-13T15:20:32;14;13;
69688;PMS5003;56932;38.402;-96.176;2023-01-13T15:22:58;13;11;
69688;PMS5003;56932;38.402;-96.176;2023-01-13T15:25:24;11;11;
69688;PMS5003;56932;38.402;-96.176;2023-01-13T15:27:49;12;11;
69688;PMS5003;56932;38.402;-96.176;2023-01-13T15:30:15;13;12;
69688;PMS5003;56932;38.402;-96.176;2023-01-13T15:32:39;13;12;
69688;PMS5003;56932;38.402;-96.176;2023-01-13T15:35:05;13;11;
69688;PMS5003;56932;38.402;-96.176;2023-01-13T15:37:30;10;10;
69688;PMS5003;56932;38.402;-96.176;2023-01-13T15:39:56;10;8;
69688;PMS5003;56932;38.402;-96.176;2023-01-13T15:42:21;16;11;
69688;PMS5003;56932;38.402;-96.176;2023-01-13T15:44:46;11;11;
69688;PMS5003;56932;38.402;-96.176;2023-01-13T15:47:12;14;10;
69688;PMS5003;56932;38.402;-96.176;2023-01-13T15:49:38;11;9;
69688;PMS5003;56932;38.402;-96.176;2023-01-13T15:52:04;10;8;
69688;PMS5003;56932;38.402;-96.176;2023-01-13T15:54:29;10;8;
69688;PMS5003;56932;38.402;-96.176;2023-01-13T15:56:54;9;8;
69688;PMS5003;56932;38.402;-96.176;2023-01-13T15:59:21;10;10;
69688;PMS5003;56932;38.402;-96.176;2023-01-13T16:01:45;13;10;
69688;PMS5003;56932;38.402;-96.176;2023-01-13T16:04:11;7;7;
69688;PMS5003;56932;38.402;-96.176;2023-01-13T16:06:36;9;9;
69688;PMS5003;56932;38.402;-96.176;2023-01-13T16:09:02;9;8;
69688;PMS5003;56932;38.402;-96.176;2023-01-13T16:11:27;9;9;
69688;PMS5003;56932;38.402;-96.176;2023-01-13T16:13:53;11;6;
69688;PMS5003;56932;38.402;-96.176;2023-01-13T16:16:19;9;8;
69688;PMS5003;56932;38.402;-96.176;2023-01-13T16:18:44;14;11;
69688;PMS5003;56932;38.402;-96.176;2023-01-13T16:21:10;8;8;
69688;PMS5003;56932;38.402;-96.176;2023-01-13T16:23:35;10;9;
69688;PMS5003;56932;38.402;-96.176;2023-01-13T16:26:03;15;12;
69688;PMS5003;56932;38.402;-96.176;2023-01-13T16:28:26;10;10;
69688;PMS5003;56932;38.402;-96.176;2023-01-13T16:30:51;11;10;
69688;PMS5003;56932;38.402;-96.176;2023-01-13T16:33:17;11;8;
69688;PMS5003;56932;38.402;-96.176;2023-01-13T16:35:42;8;7;
69688;PMS5003;56932;38.402;-96.176;2023-01-13T16:38:09;8;8;